createdAt,value
2022-07-28T00:01:10.642Z,33.80
2022-07-28T00:03:37.798Z,34.50
2022-07-28T00:06:05.050Z,34.80
2022-07-28T00:08:32.025Z,34.60
2022-07-28T00:10:59.099Z,34.70
2022-07-28T00:13:26.253Z,34.40
2022-07-28T00:15:53.262Z,34.20
2022-07-28T00:18:20.419Z,34.20
2022-07-28T00:20:47.512Z,34.10
2022-07-28T00:23:14.605Z,34.90
2022-07-28T00:25:41.658Z,35.10
2022-07-28T00:28:08.671Z,35.60
2022-07-28T00:30:35.774Z,35.90
2022-07-28T00:33:02.940Z,35.70
2022-07-28T00:35:32.022Z,35.80
2022-07-28T00:38:01.046Z,35.20
2022-07-28T00:40:47.466Z,34.20
2022-07-28T00:43:15.421Z,33.80
2022-07-28T00:45:42.662Z,33.20
2022-07-28T00:48:09.715Z,32.80
2022-07-28T00:50:39.802Z,31.90
2022-07-28T00:53:07.885Z,32.30
2022-07-28T00:56:04.117Z,32.20
2022-07-28T00:58:23.344Z,33.30
2022-07-28T01:00:50.395Z,33.70
2022-07-28T01:03:18.437Z,33.40
2022-07-28T01:05:55.777Z,33.20
2022-07-28T01:08:40.841Z,33.50
2022-07-28T01:11:22.213Z,33.30
2022-07-28T01:13:52.273Z,33.50
2022-07-28T01:16:23.226Z,34.20
2022-07-28T01:19:19.157Z,33.40
2022-07-28T01:21:47.468Z,33.10
2022-07-28T01:24:28.166Z,33.30
2022-07-28T01:27:06.091Z,33.90
2022-07-28T01:30:03.317Z,34.30
2022-07-28T01:32:40.548Z,34.60
2022-07-28T01:35:18.288Z,34.90
2022-07-28T01:37:48.646Z,34.90
2022-07-28T01:40:22.731Z,34.80
2022-07-28T01:42:56.532Z,34.70
2022-07-28T01:45:25.827Z,34.30
2022-07-28T01:47:55.752Z,34.40
2022-07-28T01:50:24.856Z,35.10
2022-07-28T01:52:53.031Z,35.60
2022-07-28T01:55:22.353Z,35.00
2022-07-28T01:57:52.009Z,35.00
2022-07-28T02:00:20.695Z,34.30
2022-07-28T02:02:50.057Z,33.60
2022-07-28T02:05:21.864Z,34.00
2022-07-28T02:07:51.319Z,32.90
2022-07-28T02:10:20.231Z,32.10
2022-07-28T02:12:50.091Z,32.10
2022-07-28T02:15:17.691Z,32.40
2022-07-28T02:17:47.165Z,32.70
2022-07-28T02:20:16.573Z,32.70
2022-07-28T02:22:45.039Z,32.90
2022-07-28T02:25:19.642Z,33.10
2022-07-28T02:28:02.066Z,33.10
2022-07-28T02:30:37.765Z,33.10
2022-07-28T02:33:14.620Z,33.00
2022-07-28T02:35:58.753Z,32.40
2022-07-28T02:38:30.408Z,33.00
2022-07-28T02:41:01.556Z,33.30
2022-07-28T02:43:50.455Z,33.40
2022-07-28T02:46:20.254Z,32.60
2022-07-28T02:48:52.555Z,32.60
2022-07-28T02:51:23.693Z,33.10
2022-07-28T02:53:52.029Z,33.00
2022-07-28T02:56:20.041Z,33.60
2022-07-28T02:58:48.012Z,33.20
2022-07-28T03:01:18.980Z,32.80
2022-07-28T03:03:48.343Z,32.70
2022-07-28T03:06:19.794Z,32.50
2022-07-28T03:08:55.536Z,32.80
2022-07-28T03:11:22.541Z,32.30
2022-07-28T03:13:49.703Z,31.80
2022-07-28T03:16:17.108Z,32.70
2022-07-28T03:18:44.107Z,32.80
2022-07-28T03:21:12.391Z,32.60
2022-07-28T03:23:44.345Z,32.60
2022-07-28T03:26:41.376Z,32.50
2022-07-28T03:29:10.809Z,32.40
2022-07-28T03:31:40.775Z,33.60
2022-07-28T03:34:11.358Z,33.60
2022-07-28T03:36:46.067Z,33.50
2022-07-28T03:39:16.845Z,33.60
2022-07-28T03:41:45.100Z,33.70
2022-07-28T03:44:14.852Z,33.50
2022-07-28T03:46:55.146Z,34.20
2022-07-28T03:49:22.444Z,34.70
2022-07-28T03:51:49.631Z,34.00
2022-07-28T03:54:16.952Z,35.00
2022-07-28T03:56:44.266Z,34.70
2022-07-28T03:59:11.559Z,34.30
2022-07-28T04:01:38.687Z,35.00
2022-07-28T04:04:05.817Z,35.70
2022-07-28T04:06:32.936Z,36.00
2022-07-28T04:08:59.960Z,36.40
2022-07-28T04:11:27.028Z,35.90
2022-07-28T04:13:54.168Z,35.80
2022-07-28T04:16:22.414Z,36.00
2022-07-28T04:18:49.557Z,36.20
2022-07-28T04:21:16.825Z,36.20
2022-07-28T04:23:43.858Z,36.20
2022-07-28T04:26:10.978Z,35.80
2022-07-28T04:28:38.242Z,34.80
2022-07-28T04:31:05.328Z,35.00
2022-07-28T04:33:32.418Z,35.40
2022-07-28T04:36:01.767Z,35.70
2022-07-28T04:38:29.249Z,35.60
2022-07-28T04:40:56.308Z,35.30
2022-07-28T04:43:23.401Z,34.80
2022-07-28T04:45:54.621Z,34.60
2022-07-28T04:48:25.171Z,34.70
2022-07-28T04:50:53.361Z,34.30
2022-07-28T04:53:21.054Z,33.60
2022-07-28T04:55:49.613Z,33.30
2022-07-28T04:58:18.482Z,33.40
2022-07-28T05:00:49.513Z,33.40
2022-07-28T05:03:17.451Z,33.50
2022-07-28T05:05:44.432Z,34.30
2022-07-28T05:08:16.239Z,34.70
2022-07-28T05:10:43.396Z,35.50
2022-07-28T05:13:10.875Z,35.80
2022-07-28T05:15:38.007Z,35.70
2022-07-28T05:18:05.373Z,36.10
2022-07-28T05:20:35.819Z,36.10
2022-07-28T05:23:04.217Z,36.80
2022-07-28T05:25:31.246Z,36.50
2022-07-28T05:27:58.251Z,35.60
2022-07-28T05:30:25.363Z,35.60
2022-07-28T05:32:54.153Z,35.40
2022-07-28T05:35:21.197Z,34.80
2022-07-28T05:37:48.194Z,34.40
2022-07-28T05:40:16.430Z,34.60
2022-07-28T05:42:43.915Z,34.80
2022-07-28T05:45:15.078Z,34.00
2022-07-28T05:47:53.596Z,34.40
2022-07-28T05:50:22.750Z,34.50
2022-07-28T05:52:51.422Z,35.00
2022-07-28T05:55:19.302Z,35.90
2022-07-28T05:57:46.618Z,36.20
2022-07-28T06:00:16.491Z,36.10
2022-07-28T06:02:49.607Z,36.30
2022-07-28T06:05:18.282Z,35.70
2022-07-28T06:07:46.490Z,36.10
2022-07-28T06:10:15.075Z,35.40
2022-07-28T06:12:48.257Z,35.30
2022-07-28T06:15:17.566Z,35.80
2022-07-28T06:17:44.856Z,36.10
2022-07-28T06:20:12.721Z,36.00
2022-07-28T06:22:46.449Z,36.90
2022-07-28T06:25:20.909Z,36.80
2022-07-28T06:27:52.077Z,37.00
2022-07-28T06:30:19.775Z,36.10
2022-07-28T06:32:47.478Z,36.40
2022-07-28T06:35:16.879Z,36.90
2022-07-28T06:37:48.631Z,36.70
2022-07-28T06:40:17.515Z,36.80
2022-07-28T06:42:45.508Z,37.50
2022-07-28T06:45:20.700Z,38.60
2022-07-28T06:47:52.278Z,39.60
2022-07-28T06:50:26.462Z,39.50
2022-07-28T06:52:55.356Z,39.00
2022-07-28T06:55:22.498Z,38.30
2022-07-28T06:57:49.452Z,38.50
2022-07-28T07:00:16.762Z,38.80
2022-07-28T07:02:44.067Z,38.80
2022-07-28T07:05:12.774Z,38.90
2022-07-28T07:07:43.358Z,38.90
2022-07-28T07:10:10.973Z,38.30
2022-07-28T07:12:38.592Z,38.80
2022-07-28T07:15:07.438Z,39.10
2022-07-28T07:17:34.837Z,38.60
2022-07-28T07:20:01.883Z,38.40
2022-07-28T07:22:28.888Z,38.90
2022-07-28T07:24:57.673Z,39.20
2022-07-28T07:27:25.059Z,40.10
2022-07-28T07:29:52.042Z,40.20
2022-07-28T07:32:20.112Z,40.90
2022-07-28T07:34:47.127Z,41.00
2022-07-28T07:37:15.217Z,41.00
2022-07-28T07:39:42.961Z,41.90
2022-07-28T07:42:10.065Z,42.80
2022-07-28T07:44:38.140Z,42.90
2022-07-28T07:47:05.284Z,43.80
2022-07-28T07:49:45.556Z,44.20
2022-07-28T07:52:13.881Z,44.20
2022-07-28T07:54:41.328Z,44.10
2022-07-28T07:57:08.361Z,42.70
2022-07-28T07:59:35.423Z,42.10
2022-07-28T08:02:02.641Z,41.60
2022-07-28T08:04:29.892Z,41.70
2022-07-28T08:06:57.015Z,41.80
2022-07-28T08:09:24.157Z,41.40
2022-07-28T08:11:51.285Z,41.00
2022-07-28T08:14:18.729Z,40.50
2022-07-28T08:16:45.986Z,40.20
2022-07-28T08:19:13.013Z,39.90
2022-07-28T08:21:41.307Z,39.40
2022-07-28T08:24:08.569Z,39.40
2022-07-28T08:26:36.412Z,39.50
2022-07-28T08:29:04.525Z,39.80
2022-07-28T08:31:32.434Z,40.10
2022-07-28T08:34:03.564Z,41.10
2022-07-28T08:36:32.815Z,41.70
2022-07-28T08:38:59.866Z,42.30
2022-07-28T08:41:42.066Z,42.70
2022-07-28T08:44:11.184Z,42.90
2022-07-28T08:46:38.725Z,43.30
2022-07-28T08:49:08.605Z,43.20
2022-07-28T08:51:37.591Z,43.20
2022-07-28T08:54:06.174Z,43.20
2022-07-28T08:56:34.550Z,43.10
2022-07-28T08:59:03.045Z,42.80
2022-07-28T09:01:38.706Z,42.90
2022-07-28T09:04:08.621Z,42.90
2022-07-28T09:06:42.058Z,43.10
2022-07-28T09:09:10.138Z,43.10
2022-07-28T09:11:40.175Z,42.40
2022-07-28T09:14:07.366Z,42.20
2022-07-28T09:16:34.544Z,42.00
2022-07-28T09:19:01.517Z,42.20
2022-07-28T09:21:28.835Z,42.40
2022-07-28T09:23:55.845Z,42.40
2022-07-28T09:26:22.777Z,42.40
2022-07-28T09:28:52.390Z,42.10
2022-07-28T09:31:20.895Z,41.50
2022-07-28T09:34:02.832Z,41.40
2022-07-28T09:36:38.731Z,41.70
2022-07-28T09:39:06.125Z,41.10
2022-07-28T09:41:53.141Z,41.30
2022-07-28T09:44:21.593Z,41.40
2022-07-28T09:46:49.376Z,41.40
2022-07-28T09:49:16.943Z,41.30
2022-07-28T09:52:03.710Z,41.10
2022-07-28T09:54:30.735Z,41.00
2022-07-28T09:56:57.966Z,40.20
2022-07-28T09:59:25.933Z,40.10
2022-07-28T10:01:56.911Z,40.60
2022-07-28T10:04:42.785Z,41.00
2022-07-28T10:07:14.085Z,41.30
2022-07-28T10:09:41.679Z,41.30
2022-07-28T10:12:22.929Z,41.50
2022-07-28T10:14:52.132Z,42.00
2022-07-28T10:17:29.916Z,42.20
2022-07-28T10:20:03.269Z,42.20
2022-07-28T10:22:34.111Z,42.50
2022-07-28T10:25:02.059Z,42.60
2022-07-28T10:27:29.992Z,42.80
2022-07-28T10:30:03.650Z,42.60
2022-07-28T10:32:41.590Z,42.50
2022-07-28T10:35:14.329Z,42.20
2022-07-28T10:37:58.091Z,42.70
2022-07-28T10:40:33.113Z,42.70
2022-07-28T10:43:01.039Z,42.60
2022-07-28T10:45:48.094Z,41.70
2022-07-28T10:48:16.806Z,41.50
2022-07-28T10:50:44.943Z,41.40
2022-07-28T10:53:13.518Z,42.20
2022-07-28T10:55:51.170Z,42.80
2022-07-28T10:58:34.002Z,43.10
2022-07-28T11:01:05.895Z,43.00
2022-07-28T11:03:45.040Z,43.70
2022-07-28T11:06:28.599Z,44.00
2022-07-28T11:09:00.727Z,44.10
2022-07-28T11:11:52.098Z,44.00
2022-07-28T11:14:26.235Z,43.00
2022-07-28T11:17:10.122Z,42.60
2022-07-28T11:20:07.191Z,43.40
2022-07-28T11:22:33.435Z,44.00
2022-07-28T11:25:18.501Z,44.70
2022-07-28T11:27:51.892Z,45.00
2022-07-28T11:30:19.738Z,45.00
2022-07-28T11:32:59.886Z,45.50
2022-07-28T11:35:28.422Z,45.80
2022-07-28T11:38:01.644Z,46.00
2022-07-28T11:40:34.806Z,46.40
2022-07-28T11:43:36.375Z,46.40
2022-07-28T11:46:07.757Z,46.40
2022-07-28T11:48:42.163Z,46.80
2022-07-28T11:51:13.290Z,47.40
2022-07-28T11:53:52.882Z,47.90
2022-07-28T11:56:29.417Z,47.50
2022-07-28T11:58:58.210Z,47.20
2022-07-28T12:01:25.285Z,46.70
2022-07-28T12:03:56.238Z,47.30
2022-07-28T12:06:28.586Z,48.10
2022-07-28T12:09:02.714Z,48.30
2022-07-28T12:11:37.528Z,48.20
2022-07-28T12:14:06.779Z,47.80
2022-07-28T12:16:37.037Z,47.70
2022-07-28T12:19:04.785Z,47.30
2022-07-28T12:21:49.491Z,46.60
2022-07-28T12:24:20.014Z,46.50
2022-07-28T12:26:50.038Z,46.60
2022-07-28T12:29:19.560Z,46.80
2022-07-28T12:32:07.028Z,46.00
2022-07-28T12:34:35.387Z,46.00
2022-07-28T12:37:04.993Z,45.70
2022-07-28T12:39:36.990Z,46.60
2022-07-28T12:42:09.540Z,46.80
2022-07-28T12:44:45.167Z,46.50
2022-07-28T12:47:13.650Z,46.20
2022-07-28T12:49:42.791Z,45.90
2022-07-28T12:52:16.136Z,46.00
2022-07-28T12:54:43.183Z,46.10
2022-07-28T12:57:48.791Z,46.40
2022-07-28T13:00:19.627Z,46.60
2022-07-28T13:02:48.315Z,46.90
2022-07-28T13:05:53.687Z,47.20
2022-07-28T13:08:21.329Z,47.50
2022-07-28T13:10:51.640Z,48.30
2022-07-28T13:13:22.888Z,48.90
2022-07-28T13:16:15.855Z,49.20
2022-07-28T13:18:51.953Z,49.40
2022-07-28T13:21:38.211Z,49.10
2022-07-28T13:24:05.707Z,49.10
2022-07-28T13:26:32.721Z,49.10
2022-07-28T13:29:04.334Z,49.30
2022-07-28T13:31:40.194Z,49.60
2022-07-28T13:34:09.216Z,49.90
2022-07-28T13:36:37.373Z,49.80
2022-07-28T13:39:06.240Z,49.70
2022-07-28T13:41:56.453Z,49.80
2022-07-28T13:44:20.454Z,49.70
2022-07-28T13:46:50.088Z,49.40
2022-07-28T13:49:17.303Z,48.50
2022-07-28T13:51:48.932Z,47.90
2022-07-28T13:54:19.440Z,48.00
2022-07-28T13:56:47.500Z,48.10
2022-07-28T13:59:14.546Z,48.70
2022-07-28T14:01:42.307Z,48.10
2022-07-28T14:04:16.491Z,47.30
2022-07-28T14:06:45.201Z,47.10
2022-07-28T14:09:21.039Z,47.50
2022-07-28T14:11:50.010Z,47.80
2022-07-28T14:14:23.958Z,48.30
2022-07-28T14:16:55.489Z,48.40
2022-07-28T14:19:39.498Z,48.70
2022-07-28T14:22:13.818Z,48.80
2022-07-28T14:24:42.648Z,48.70
2022-07-28T14:27:11.196Z,48.90
2022-07-28T14:29:39.006Z,49.30
2022-07-28T14:32:07.040Z,49.40
2022-07-28T14:34:34.578Z,49.50
2022-07-28T14:37:05.590Z,49.40
2022-07-28T14:39:37.134Z,49.20
2022-07-28T14:42:04.987Z,49.60
2022-07-28T14:44:31.965Z,49.80
2022-07-28T14:46:59.246Z,49.70
2022-07-28T14:49:26.363Z,50.00
2022-07-28T14:51:53.469Z,49.90
2022-07-28T14:54:20.468Z,49.80
2022-07-28T14:56:47.419Z,49.60
2022-07-28T14:59:14.396Z,49.40
2022-07-28T15:01:41.445Z,48.90
2022-07-28T15:04:10.225Z,48.70
2022-07-28T15:06:38.520Z,48.50
2022-07-28T15:09:06.866Z,48.20
2022-07-28T15:11:33.822Z,47.90
2022-07-28T15:14:00.924Z,47.60
2022-07-28T15:16:28.612Z,47.30
2022-07-28T15:18:55.696Z,46.70
2022-07-28T15:21:22.772Z,46.50
2022-07-28T15:23:49.888Z,45.80
2022-07-28T15:26:17.013Z,45.50
2022-07-28T15:28:44.079Z,45.60
2022-07-28T15:31:11.373Z,45.00
2022-07-28T15:33:47.779Z,44.70
2022-07-28T15:36:15.012Z,44.30
2022-07-28T15:38:41.982Z,43.80
2022-07-28T15:41:18.511Z,43.50
2022-07-28T15:43:45.771Z,43.20
2022-07-28T15:46:14.429Z,42.70
2022-07-28T15:48:43.243Z,42.80
2022-07-28T15:51:11.061Z,42.60
2022-07-28T15:53:38.793Z,42.60
2022-07-28T15:56:06.078Z,42.60
2022-07-28T15:58:33.208Z,42.60
2022-07-28T16:01:01.945Z,42.30
2022-07-28T16:03:30.115Z,41.90
2022-07-28T16:05:58.837Z,41.70
2022-07-28T16:08:26.245Z,41.40
2022-07-28T16:10:54.696Z,41.40
2022-07-28T16:13:36.555Z,41.40
2022-07-28T16:16:14.006Z,41.60
2022-07-28T16:18:43.305Z,41.80
2022-07-28T16:21:11.583Z,41.30
2022-07-28T16:23:38.577Z,41.60
2022-07-28T16:26:08.123Z,41.70
2022-07-28T16:28:36.345Z,41.80
2022-07-28T16:31:03.436Z,41.70
2022-07-28T16:33:33.281Z,41.70
2022-07-28T16:36:02.723Z,41.70
2022-07-28T16:38:30.291Z,41.70
2022-07-28T16:40:57.443Z,41.70
2022-07-28T16:43:24.682Z,41.40
2022-07-28T16:45:52.102Z,41.20
2022-07-28T16:48:19.076Z,41.40
2022-07-28T16:50:46.329Z,41.40
2022-07-28T16:53:14.202Z,41.10
2022-07-28T16:55:42.373Z,41.10
2022-07-28T16:58:09.413Z,41.20
2022-07-28T17:00:36.538Z,41.40
2022-07-28T17:03:03.552Z,41.30
2022-07-28T17:05:30.498Z,41.20
2022-07-28T17:07:58.463Z,41.40
2022-07-28T17:10:26.495Z,40.80
2022-07-28T17:12:55.058Z,40.80
2022-07-28T17:15:23.308Z,40.70
2022-07-28T17:17:51.821Z,41.00
2022-07-28T17:20:20.254Z,40.80
2022-07-28T17:22:47.383Z,40.80
2022-07-28T17:30:52.717Z,40.60
2022-07-28T17:33:19.745Z,40.70
2022-07-28T17:35:46.760Z,40.60
2022-07-28T17:38:15.996Z,40.70
2022-07-28T17:40:43.263Z,40.70
2022-07-28T17:43:15.302Z,40.90
2022-07-28T17:45:42.387Z,40.80
2022-07-28T17:48:09.340Z,40.80
2022-07-28T17:50:36.392Z,40.80
2022-07-28T17:53:03.648Z,40.70
2022-07-28T17:55:57.465Z,40.60
2022-07-28T17:58:27.838Z,40.50
2022-07-28T18:01:09.715Z,40.50
2022-07-28T18:03:58.303Z,40.50
2022-07-28T18:06:28.493Z,40.50
2022-07-28T18:08:55.521Z,40.40
2022-07-28T18:11:22.560Z,40.20
2022-07-28T18:14:03.778Z,40.20
2022-07-28T18:16:32.007Z,40.20
2022-07-28T18:18:59.063Z,40.00
2022-07-28T18:21:26.810Z,40.00
2022-07-28T18:23:54.812Z,40.00
2022-07-28T18:26:22.444Z,40.00
2022-07-28T18:28:49.815Z,40.00
2022-07-28T18:31:16.914Z,39.90
2022-07-28T18:33:44.197Z,39.80
2022-07-28T18:36:11.245Z,39.60
2022-07-28T18:38:38.320Z,39.60
2022-07-28T18:41:05.356Z,39.60
2022-07-28T18:43:32.333Z,39.70
2022-07-28T18:45:59.397Z,39.70
2022-07-28T18:48:29.197Z,39.80
2022-07-28T18:50:56.162Z,39.80
2022-07-28T18:53:23.551Z,39.80
2022-07-28T18:55:51.262Z,39.70
2022-07-28T18:58:18.253Z,39.60
2022-07-28T19:00:45.405Z,39.50
2022-07-28T19:03:12.445Z,39.40
2022-07-28T19:05:44.073Z,39.30
2022-07-28T19:08:12.960Z,39.40
2022-07-28T19:10:40.137Z,39.40
2022-07-28T19:13:12.325Z,39.30
2022-07-28T19:15:41.011Z,39.40
2022-07-28T19:18:10.039Z,39.20
2022-07-28T19:20:39.732Z,39.00
2022-07-28T19:23:06.871Z,38.90
2022-07-28T19:25:36.455Z,39.00
2022-07-28T19:28:04.475Z,39.10
2022-07-28T19:30:32.504Z,39.10
2022-07-28T19:33:00.266Z,39.00
2022-07-28T19:35:27.360Z,39.00
2022-07-28T19:37:56.707Z,39.00
2022-07-28T19:40:25.583Z,39.10
2022-07-28T19:42:53.589Z,39.00
2022-07-28T19:45:20.742Z,39.10
2022-07-28T19:47:49.903Z,39.00
2022-07-28T19:50:17.302Z,39.10
2022-07-28T19:52:44.266Z,39.00
2022-07-28T19:55:12.833Z,39.10
2022-07-28T19:57:45.538Z,39.10
2022-07-28T20:00:13.669Z,39.10
2022-07-28T20:02:41.123Z,39.00
2022-07-28T20:05:09.109Z,39.00
2022-07-28T20:07:36.487Z,39.00
2022-07-28T20:10:04.718Z,39.20
2022-07-28T20:12:36.355Z,39.10
2022-07-28T20:15:07.198Z,39.00
2022-07-28T20:17:39.561Z,39.00
2022-07-28T20:20:09.858Z,39.00
2022-07-28T20:22:39.665Z,38.90
2022-07-28T20:25:09.682Z,38.90
2022-07-28T20:27:39.942Z,38.90
2022-07-28T20:30:12.697Z,38.80
2022-07-28T20:32:40.789Z,38.60
2022-07-28T20:35:10.897Z,38.40
2022-07-28T20:37:38.336Z,38.50
2022-07-28T20:40:09.736Z,38.70
2022-07-28T20:42:37.088Z,38.80
2022-07-28T20:45:05.332Z,38.90
2022-07-28T20:47:33.592Z,38.70
2022-07-28T20:50:01.335Z,38.40
2022-07-28T20:52:30.443Z,38.40
2022-07-28T20:54:57.412Z,38.40
2022-07-28T20:57:24.435Z,38.60
2022-07-28T20:59:52.348Z,38.70
2022-07-28T21:02:24.573Z,38.70
2022-07-28T21:04:52.396Z,38.60
2022-07-28T21:08:00.778Z,38.70
2022-07-28T21:10:08.839Z,38.70
2022-07-28T21:12:37.325Z,38.50
2022-07-28T21:15:09.723Z,38.50
2022-07-28T21:17:37.174Z,38.60
2022-07-28T21:20:06.132Z,38.70
2022-07-28T21:22:33.374Z,38.70
2022-07-28T21:25:00.476Z,38.50
2022-07-28T21:27:27.497Z,38.40
2022-07-28T21:32:20.249Z,38.50
2022-07-28T21:34:47.264Z,38.50
2022-07-28T21:37:14.296Z,38.30
2022-07-28T21:39:41.337Z,38.20
2022-07-28T21:42:09.493Z,38.10
2022-07-28T21:44:39.799Z,38.30
2022-07-28T21:47:07.196Z,38.30
2022-07-28T21:49:34.198Z,38.30
2022-07-28T21:52:01.330Z,38.30
2022-07-28T21:54:28.521Z,38.30
2022-07-28T21:56:55.481Z,38.40
2022-07-28T21:59:22.463Z,38.40
2022-07-28T22:01:49.641Z,38.20
2022-07-28T22:04:17.313Z,38.30
2022-07-28T22:06:46.568Z,38.10
2022-07-28T22:09:14.617Z,37.80
2022-07-28T22:11:41.884Z,37.70
2022-07-28T22:14:09.118Z,37.70
2022-07-28T22:16:36.279Z,37.70
2022-07-28T22:19:03.948Z,37.90
2022-07-28T22:21:30.977Z,38.00
2022-07-28T22:23:58.041Z,38.10
2022-07-28T22:26:25.093Z,38.10
2022-07-28T22:28:52.078Z,38.20
2022-07-28T22:31:19.146Z,38.20
2022-07-28T22:33:47.378Z,38.20
2022-07-28T22:36:14.419Z,38.30
2022-07-28T22:38:41.403Z,38.40
2022-07-28T22:41:09.721Z,38.40
2022-07-28T22:43:37.272Z,38.40
2022-07-28T22:46:04.286Z,38.40
2022-07-28T22:48:31.335Z,38.40
2022-07-28T22:50:58.353Z,38.40
2022-07-28T22:53:25.291Z,38.50
2022-07-28T22:58:37.040Z,38.40
2022-07-28T23:01:04.324Z,38.40
2022-07-28T23:03:34.445Z,38.20
2022-07-28T23:06:01.795Z,38.20
2022-07-28T23:08:29.007Z,38.10
2022-07-28T23:10:56.033Z,38.20
2022-07-28T23:13:23.107Z,38.20
2022-07-28T23:15:50.530Z,38.10
2022-07-28T23:18:17.552Z,38.10
2022-07-28T23:20:45.280Z,38.20
2022-07-28T23:23:12.782Z,38.30
2022-07-28T23:25:42.811Z,38.30
2022-07-28T23:28:11.096Z,38.30
2022-07-28T23:30:38.713Z,38.30
2022-07-28T23:33:05.944Z,38.30
2022-07-28T23:35:33.695Z,38.30
2022-07-28T23:38:00.632Z,38.20
2022-07-28T23:40:27.733Z,38.10
2022-07-28T23:42:54.680Z,38.00
2022-07-28T23:45:21.971Z,38.10
2022-07-28T23:47:48.883Z,38.00
2022-07-28T23:50:15.920Z,38.10
2022-07-28T23:52:42.887Z,38.10
2022-07-28T23:55:10.040Z,38.20
2022-07-28T23:57:37.234Z,38.20
